FAMV weather

Montrose Airport
Montrose, Limpopo, South Africa

Public forecast

Using degrees Celsius for public forecast. Weather courtesy of forecast.io.

Closest aviation weather report (METAR) to Montrose Airport

Closest report is Hoedspruit Air Force Base Airport, 49.6 nm (91.8 km) ENE. Retrieved 2020/08/06 13:00 UTC (25 minutes ago):

FAHS 061300Z AUTO 01009KT //// // ////// 27/13 Q1018

Closest aviation forecast (TAF) to Montrose Airport

Forecast is more than 12 hours old.

Closest forecast is Hoedspruit Air Force Base Airport, 49.6 nm (91.8 km) ENE. Retrieved 2017/05/23 04:01 UTC (3 years ago):

TAF FAHS 230300Z 2304/2315 VRB02KT CAVOK TX29/2312ZTN12/2304Z